createdAt,value
2019-04-26T00:01:58.318Z,14.68
2019-04-26T00:04:26.832Z,15.90
2019-04-26T00:06:55.642Z,10.88
2019-04-26T00:09:25.945Z,12.53
2019-04-26T00:11:58.836Z,13.10
2019-04-26T00:14:44.948Z,16.05
2019-04-26T00:17:29.495Z,15.03
2019-04-26T00:19:58.162Z,15.50
2019-04-26T00:22:26.639Z,14.40
2019-04-26T00:24:55.121Z,17.87
2019-04-26T00:27:23.592Z,17.92
2019-04-26T00:29:52.161Z,19.02
2019-04-26T00:32:21.382Z,20.45
2019-04-26T00:34:49.650Z,16.35
2019-04-26T00:37:18.006Z,15.93
2019-04-26T00:39:46.546Z,15.38
2019-04-26T00:42:15.004Z,19.00
2019-04-26T00:44:43.484Z,15.63
2019-04-26T00:47:13.658Z,16.73
2019-04-26T00:49:43.752Z,23.83
2019-04-26T00:52:12.985Z,19.07
2019-04-26T00:54:42.029Z,18.12
2019-04-26T00:57:10.229Z,16.40
2019-04-26T00:59:38.793Z,22.77
2019-04-26T01:02:11.594Z,18.62
2019-04-26T01:04:40.041Z,16.55
2019-04-26T01:07:08.318Z,18.77
2019-04-26T01:09:36.542Z,18.17
2019-04-26T01:12:04.973Z,20.15
2019-04-26T01:14:33.470Z,18.02
2019-04-26T01:17:01.922Z,19.23
2019-04-26T01:19:30.412Z,19.20
2019-04-26T01:22:00.700Z,22.62
2019-04-26T01:24:28.919Z,21.05
2019-04-26T01:26:57.398Z,22.67
2019-04-26T01:29:26.025Z,23.60
2019-04-26T01:31:57.626Z,24.90
2019-04-26T01:34:26.176Z,22.80
2019-04-26T01:36:54.412Z,21.37
2019-04-26T01:39:23.940Z,23.02
2019-04-26T01:41:59.445Z,30.57
2019-04-26T01:44:30.830Z,26.95
2019-04-26T01:46:59.097Z,19.00
2019-04-26T01:49:28.220Z,20.62
2019-04-26T01:52:02.871Z,21.45
2019-04-26T01:54:37.513Z,20.40
2019-04-26T01:57:05.858Z,21.73
2019-04-26T01:59:34.345Z,25.17
2019-04-26T02:02:13.181Z,22.37
2019-04-26T02:04:49.148Z,28.42
2019-04-26T02:07:18.989Z,24.75
2019-04-26T02:09:47.213Z,24.00
2019-04-26T02:12:15.620Z,26.80
2019-04-26T02:14:44.115Z,24.05
2019-04-26T02:17:12.415Z,29.03
2019-04-26T02:19:40.625Z,20.52
2019-04-26T02:22:13.228Z,24.98
2019-04-26T02:24:43.262Z,22.13
2019-04-26T02:27:13.334Z,25.17
2019-04-26T02:29:41.661Z,27.20
2019-04-26T02:32:10.130Z,26.55
2019-04-26T02:34:38.759Z,27.65
2019-04-26T02:37:08.026Z,19.27
2019-04-26T02:39:38.452Z,27.07
2019-04-26T02:42:09.055Z,25.32
2019-04-26T02:44:39.291Z,24.15
2019-04-26T02:47:39.091Z,27.62
2019-04-26T02:50:11.655Z,26.17
2019-04-26T02:53:02.374Z,24.12
2019-04-26T02:56:08.960Z,28.83
2019-04-26T02:58:43.160Z,27.47
2019-04-26T03:01:11.467Z,28.10
2019-04-26T03:03:39.935Z,27.17
2019-04-26T03:06:08.154Z,24.27
2019-04-26T03:08:37.776Z,23.83
2019-04-26T03:11:08.713Z,24.05
2019-04-26T03:13:40.282Z,27.07
2019-04-26T03:16:19.958Z,24.30
2019-04-26T03:18:53.926Z,26.87
2019-04-26T03:21:33.768Z,27.67
2019-04-26T03:24:04.853Z,26.85
2019-04-26T03:26:39.580Z,24.90
2019-04-26T03:29:26.667Z,24.43
2019-04-26T03:32:04.147Z,24.57
2019-04-26T03:34:54.123Z,23.70
2019-04-26T03:37:42.592Z,24.27
2019-04-26T03:40:29.821Z,26.40
2019-04-26T03:43:17.433Z,29.52
2019-04-26T03:45:54.803Z,27.70
2019-04-26T03:48:39.919Z,22.48
2019-04-26T03:51:36.925Z,24.50
2019-04-26T03:54:08.646Z,29.70
2019-04-26T03:56:42.382Z,25.07
2019-04-26T03:59:25.372Z,24.50
2019-04-26T04:02:07.203Z,30.00
2019-04-26T04:04:46.758Z,24.53
2019-04-26T04:07:15.608Z,28.67
2019-04-26T04:09:59.120Z,28.80
2019-04-26T04:12:44.410Z,28.70
2019-04-26T04:15:18.996Z,29.83
2019-04-26T04:17:57.813Z,25.80
2019-04-26T04:20:38.348Z,28.97
2019-04-26T04:23:26.246Z,25.37
2019-04-26T04:25:55.396Z,30.90
2019-04-26T04:29:03.255Z,26.50
2019-04-26T04:31:38.377Z,26.53
2019-04-26T04:34:26.184Z,31.60
2019-04-26T04:36:54.631Z,27.47
2019-04-26T04:39:44.238Z,31.03
2019-04-26T04:42:25.071Z,28.20
2019-04-26T04:45:19.828Z,29.70
2019-04-26T04:48:16.225Z,30.57
2019-04-26T04:51:12.758Z,30.77
2019-04-26T04:53:45.957Z,32.23
2019-04-26T04:56:43.611Z,34.73
2019-04-26T04:59:21.195Z,29.00
2019-04-26T05:02:22.856Z,33.63
2019-04-26T05:05:19.965Z,33.10
2019-04-26T05:08:07.233Z,35.40
2019-04-26T05:10:47.695Z,30.93
2019-04-26T05:13:28.189Z,36.57
2019-04-26T05:16:34.159Z,29.50
2019-04-26T05:19:27.145Z,37.47
2019-04-26T05:22:13.236Z,34.87
2019-04-26T05:25:07.109Z,32.23
2019-04-26T05:28:02.538Z,36.17
2019-04-26T05:30:52.054Z,35.27
2019-04-26T05:33:26.022Z,33.37
2019-04-26T05:36:02.044Z,42.93
2019-04-26T05:38:49.336Z,28.00
2019-04-26T05:41:48.510Z,34.50
2019-04-26T05:44:30.860Z,39.37
2019-04-26T05:47:15.859Z,39.17
2019-04-26T05:49:52.054Z,36.53
2019-04-26T05:52:53.755Z,34.57
2019-04-26T05:55:52.342Z,38.87
2019-04-26T05:58:29.348Z,37.30
2019-04-26T06:01:08.289Z,39.17
2019-04-26T06:04:08.911Z,48.33
2019-04-26T06:06:41.673Z,42.05
2019-04-26T06:09:31.437Z,43.48
2019-04-26T06:12:44.914Z,41.08
2019-04-26T06:15:33.086Z,36.53
2019-04-26T06:18:22.632Z,45.67
2019-04-26T06:20:57.329Z,46.73
2019-04-26T06:23:44.840Z,38.77
2019-04-26T06:26:38.132Z,36.50
2019-04-26T06:29:09.616Z,38.05
2019-04-26T06:31:44.073Z,41.27
2019-04-26T06:34:30.661Z,35.90
2019-04-26T06:37:12.251Z,37.50
2019-04-26T06:40:02.399Z,36.80
2019-04-26T06:43:00.570Z,37.08
2019-04-26T06:45:56.890Z,35.15
2019-04-26T06:48:32.722Z,37.38
2019-04-26T06:51:24.313Z,35.65
2019-04-26T06:54:11.839Z,37.20
2019-04-26T06:56:45.139Z,38.48
2019-04-26T06:59:17.334Z,32.85
2019-04-26T07:01:57.948Z,35.83
2019-04-26T07:04:42.051Z,37.03
2019-04-26T07:07:30.052Z,43.48
2019-04-26T07:10:02.284Z,40.28
2019-04-26T07:12:56.013Z,32.03
2019-04-26T07:15:28.959Z,32.80
2019-04-26T07:18:10.660Z,39.27
2019-04-26T07:20:46.864Z,37.17
2019-04-26T07:23:46.526Z,31.77
2019-04-26T07:26:53.474Z,36.35
2019-04-26T07:29:46.006Z,46.73
2019-04-26T07:32:36.858Z,37.95
2019-04-26T07:35:14.905Z,55.15
2019-04-26T07:38:09.124Z,47.00
2019-04-26T07:41:01.640Z,48.98
2019-04-26T07:43:56.978Z,43.42
2019-04-26T07:46:34.079Z,44.45
2019-04-26T07:49:12.421Z,49.80
2019-04-26T07:52:18.534Z,45.70
2019-04-26T07:55:06.684Z,48.90
2019-04-26T07:57:46.961Z,40.08
2019-04-26T08:00:22.429Z,44.60
2019-04-26T08:02:56.924Z,45.65
2019-04-26T08:05:41.972Z,47.03
2019-04-26T08:08:10.962Z,42.75
2019-04-26T08:10:39.709Z,44.85
2019-04-26T08:13:16.081Z,44.88
2019-04-26T08:16:10.521Z,44.60
2019-04-26T08:19:01.126Z,42.03
2019-04-26T08:21:32.059Z,41.83
2019-04-26T08:24:07.903Z,39.42
2019-04-26T08:26:36.235Z,40.00
2019-04-26T08:29:06.557Z,43.08
2019-04-26T08:31:35.729Z,40.67
2019-04-26T08:34:06.066Z,50.17
2019-04-26T08:36:36.913Z,44.40
2019-04-26T08:39:10.931Z,44.90
2019-04-26T08:41:40.730Z,50.63
2019-04-26T08:44:11.229Z,40.75
2019-04-26T08:46:41.664Z,45.08
2019-04-26T08:49:27.408Z,37.83
2019-04-26T08:51:57.522Z,43.00
2019-04-26T08:54:27.537Z,40.28
2019-04-26T08:57:01.022Z,41.45
2019-04-26T08:59:32.498Z,48.50
2019-04-26T09:02:02.344Z,38.50
2019-04-26T09:04:32.240Z,48.90
2019-04-26T09:07:09.497Z,50.30
2019-04-26T09:09:38.346Z,42.95
2019-04-26T09:12:22.450Z,42.67
2019-04-26T09:14:45.969Z,50.17
2019-04-26T09:17:14.471Z,52.78
2019-04-26T09:19:42.964Z,43.52
2019-04-26T09:22:22.609Z,43.08
2019-04-26T09:25:05.613Z,45.03
2019-04-26T09:27:53.257Z,38.73
2019-04-26T09:30:34.432Z,41.92
2019-04-26T09:33:10.142Z,37.67
2019-04-26T09:35:38.425Z,37.42
2019-04-26T09:38:06.860Z,35.50
2019-04-26T09:40:35.062Z,35.28
2019-04-26T09:43:15.171Z,33.13
2019-04-26T09:45:47.935Z,36.60
2019-04-26T09:48:25.777Z,31.48
2019-04-26T09:50:56.053Z,28.60
2019-04-26T09:53:24.355Z,25.32
2019-04-26T09:55:52.841Z,26.73
2019-04-26T09:58:21.320Z,30.95
2019-04-26T10:00:50.289Z,33.42
2019-04-26T10:03:18.487Z,30.62
2019-04-26T10:05:46.714Z,32.23
2019-04-26T10:08:14.927Z,34.53
2019-04-26T10:10:43.154Z,33.05
2019-04-26T10:13:15.109Z,31.90
2019-04-26T10:15:58.291Z,21.68
2019-04-26T10:18:26.606Z,29.57
2019-04-26T10:20:54.818Z,26.65
2019-04-26T10:23:23.051Z,22.32
2019-04-26T10:25:51.840Z,27.42
2019-04-26T10:28:21.195Z,28.07
2019-04-26T10:30:49.670Z,23.60
2019-04-26T10:33:17.908Z,29.70
2019-04-26T10:35:46.099Z,26.00
2019-04-26T10:38:14.328Z,27.45
2019-04-26T10:40:42.542Z,24.80
2019-04-26T10:43:10.744Z,24.63
2019-04-26T10:45:38.961Z,25.62
2019-04-26T10:48:09.742Z,22.90
2019-04-26T10:50:37.277Z,23.95
2019-04-26T10:53:15.892Z,26.95
2019-04-26T10:55:57.369Z,26.95
2019-04-26T10:58:27.218Z,30.50
2019-04-26T11:00:57.081Z,26.75
2019-04-26T11:03:25.354Z,31.17
2019-04-26T11:05:55.377Z,26.25
2019-04-26T11:08:23.854Z,25.82
2019-04-26T11:10:52.401Z,24.43
2019-04-26T11:13:20.834Z,22.42
2019-04-26T11:15:49.034Z,25.60
2019-04-26T11:18:19.940Z,28.32
2019-04-26T11:20:47.286Z,23.02
2019-04-26T11:23:15.502Z,16.48
2019-04-26T11:25:43.734Z,14.47
2019-04-26T11:28:11.960Z,26.75
2019-04-26T11:30:40.185Z,17.62
2019-04-26T11:33:11.153Z,15.00
2019-04-26T11:35:38.680Z,18.23
2019-04-26T11:38:07.209Z,11.30
2019-04-26T11:40:35.656Z,11.53
2019-04-26T11:43:04.187Z,10.95
2019-04-26T11:45:32.406Z,13.85
2019-04-26T11:48:03.137Z,13.53
2019-04-26T11:50:30.613Z,13.00
2019-04-26T11:52:59.070Z,14.35
2019-04-26T11:55:29.761Z,11.75
2019-04-26T11:57:57.578Z,17.90
2019-04-26T12:00:27.760Z,14.25
2019-04-26T12:02:56.088Z,16.17
2019-04-26T12:05:26.188Z,12.85
2019-04-26T12:08:01.669Z,14.15
2019-04-26T12:10:30.223Z,20.68
2019-04-26T12:13:05.491Z,14.98
2019-04-26T12:15:30.441Z,15.30
2019-04-26T12:17:59.120Z,16.07
2019-04-26T12:20:28.481Z,14.43
2019-04-26T12:22:56.790Z,14.53
2019-04-26T12:25:25.196Z,12.95
2019-04-26T12:27:53.820Z,16.85
2019-04-26T12:30:26.371Z,11.70
2019-04-26T12:32:52.087Z,14.55
2019-04-26T12:35:20.301Z,8.75
2019-04-26T12:37:50.731Z,10.25
2019-04-26T12:40:19.520Z,8.70
2019-04-26T12:42:48.401Z,7.90
2019-04-26T12:45:34.045Z,9.93
2019-04-26T12:48:04.189Z,9.13
2019-04-26T12:50:36.422Z,8.15
2019-04-26T12:53:02.482Z,10.70
2019-04-26T12:55:30.856Z,10.38
2019-04-26T12:57:59.082Z,8.38
2019-04-26T13:00:32.908Z,10.53
2019-04-26T13:03:00.146Z,8.23
2019-04-26T13:05:28.562Z,5.95
2019-04-26T13:07:57.053Z,6.50
2019-04-26T13:10:44.919Z,7.42
2019-04-26T13:13:14.790Z,5.85
2019-04-26T13:15:57.239Z,7.87
2019-04-26T13:18:25.525Z,5.58
2019-04-26T13:20:53.725Z,8.48
2019-04-26T13:23:25.398Z,5.45
2019-04-26T13:25:55.530Z,8.00
2019-04-26T13:28:22.285Z,5.17
2019-04-26T13:30:50.732Z,7.65
2019-04-26T13:33:19.231Z,5.50
2019-04-26T13:36:02.317Z,7.00
2019-04-26T13:38:17.715Z,4.22
2019-04-26T13:40:45.923Z,4.67
2019-04-26T13:43:14.132Z,3.35
2019-04-26T13:45:43.970Z,6.40
2019-04-26T13:48:29.690Z,6.28
2019-04-26T13:51:15.767Z,8.18
2019-04-26T13:53:43.971Z,5.87
2019-04-26T13:56:12.416Z,3.85
2019-04-26T13:58:40.909Z,3.33
2019-04-26T14:01:09.979Z,4.12
2019-04-26T14:03:38.395Z,3.85
2019-04-26T14:06:06.852Z,6.95
2019-04-26T14:08:35.341Z,7.50
2019-04-26T14:11:03.714Z,3.62
2019-04-26T14:13:32.304Z,5.03
2019-04-26T14:16:00.778Z,2.90
2019-04-26T14:18:29.427Z,5.03
2019-04-26T14:20:59.061Z,3.22
2019-04-26T14:23:29.408Z,5.30
2019-04-26T14:26:01.106Z,3.35
2019-04-26T14:28:29.366Z,3.27
2019-04-26T14:30:57.580Z,6.30
2019-04-26T14:33:27.137Z,4.33
2019-04-26T14:35:55.827Z,5.15
2019-04-26T14:38:28.066Z,4.65
2019-04-26T14:41:03.835Z,5.30
2019-04-26T14:43:24.312Z,5.25
2019-04-26T14:45:56.168Z,4.72
2019-04-26T14:48:35.310Z,4.35
2019-04-26T14:50:53.316Z,5.10
2019-04-26T14:53:21.591Z,38.92
2019-04-26T14:55:51.295Z,6.75
2019-04-26T14:58:23.862Z,8.43
2019-04-26T15:01:00.403Z,4.47
2019-04-26T15:03:45.404Z,6.45
2019-04-26T15:06:20.394Z,5.17
2019-04-26T15:08:48.952Z,7.17
2019-04-26T15:11:17.547Z,7.55
2019-04-26T15:13:46.036Z,5.40
2019-04-26T15:16:14.510Z,5.80
2019-04-26T15:18:42.995Z,7.25
2019-04-26T15:21:12.874Z,10.10
2019-04-26T15:23:41.143Z,7.00
2019-04-26T15:26:09.459Z,21.90
2019-04-26T15:28:37.951Z,7.22
2019-04-26T15:31:06.436Z,6.47
2019-04-26T15:33:36.027Z,7.33
2019-04-26T15:36:06.507Z,14.90
2019-04-26T15:38:41.066Z,8.55
2019-04-26T15:41:11.550Z,7.78
2019-04-26T15:43:49.938Z,13.08
2019-04-26T15:46:20.748Z,13.10
2019-04-26T15:49:00.040Z,13.83
2019-04-26T15:51:30.219Z,12.28
2019-04-26T15:53:58.622Z,12.85
2019-04-26T15:56:27.073Z,12.97
2019-04-26T15:58:55.283Z,12.60
2019-04-26T16:01:23.546Z,11.28
2019-04-26T16:03:53.051Z,13.73
2019-04-26T16:06:21.528Z,12.40
2019-04-26T16:08:50.002Z,14.63
2019-04-26T16:11:18.490Z,13.00
2019-04-26T16:13:52.196Z,13.87
2019-04-26T16:16:20.529Z,14.17
2019-04-26T16:18:49.986Z,11.57
2019-04-26T16:21:18.077Z,15.13
2019-04-26T16:23:51.481Z,17.40
2019-04-26T16:26:17.058Z,15.23
2019-04-26T16:28:46.904Z,17.27
2019-04-26T16:31:16.762Z,18.03
2019-04-26T16:33:46.716Z,14.10
2019-04-26T16:36:15.080Z,16.30
2019-04-26T16:38:43.287Z,19.07
2019-04-26T16:41:11.537Z,17.93
2019-04-26T16:43:48.515Z,16.50
2019-04-26T16:46:12.574Z,17.83
2019-04-26T16:48:40.014Z,16.70
2019-04-26T16:51:08.938Z,19.37
2019-04-26T16:53:52.058Z,16.77
2019-04-26T16:56:07.528Z,14.97
2019-04-26T16:58:38.373Z,13.13
2019-04-26T17:01:10.159Z,14.27
2019-04-26T17:03:38.310Z,14.87
2019-04-26T17:06:10.832Z,16.80
2019-04-26T17:08:42.911Z,17.83
2019-04-26T17:11:06.097Z,18.63
2019-04-26T17:13:36.243Z,18.97
2019-04-26T17:16:04.593Z,23.20
2019-04-26T17:18:32.814Z,20.60
2019-04-26T17:21:02.580Z,19.67
2019-04-26T17:23:41.383Z,21.63
2019-04-26T17:26:16.832Z,18.80
2019-04-26T17:28:45.445Z,18.90
2019-04-26T17:31:13.675Z,20.20
2019-04-26T17:33:41.907Z,20.33
2019-04-26T17:36:11.459Z,18.50
2019-04-26T17:38:42.070Z,18.53
2019-04-26T17:41:12.670Z,13.00
2019-04-26T17:43:46.953Z,14.60
2019-04-26T17:46:14.258Z,14.60
2019-04-26T17:48:40.834Z,16.77
2019-04-26T17:51:18.021Z,14.90
2019-04-26T17:53:40.109Z,13.93
2019-04-26T17:56:08.576Z,13.90
2019-04-26T17:58:49.816Z,13.95
2019-04-26T18:01:06.980Z,12.83
2019-04-26T18:03:35.397Z,13.87
2019-04-26T18:06:03.926Z,13.57
2019-04-26T18:08:40.771Z,13.23
2019-04-26T18:11:02.066Z,12.80
2019-04-26T18:13:31.903Z,15.27
2019-04-26T18:16:00.291Z,15.13
2019-04-26T18:18:36.197Z,16.30
2019-04-26T18:21:22.895Z,15.87
2019-04-26T18:23:54.690Z,17.00
2019-04-26T18:26:22.902Z,16.63
2019-04-26T18:28:54.954Z,17.87
2019-04-26T18:31:28.479Z,19.90
2019-04-26T18:33:54.788Z,23.63
2019-04-26T18:36:23.491Z,26.70
2019-04-26T18:38:53.663Z,27.77
2019-04-26T18:41:23.077Z,25.23
2019-04-26T18:43:54.092Z,22.27
2019-04-26T18:46:24.136Z,29.60
2019-04-26T18:48:53.506Z,30.47
2019-04-26T18:51:23.634Z,32.00
2019-04-26T18:53:59.707Z,33.33
2019-04-26T18:56:27.921Z,38.47
2019-04-26T18:58:56.299Z,34.60
2019-04-26T19:01:24.793Z,42.97
2019-04-26T19:03:54.178Z,49.83
2019-04-26T19:06:29.696Z,48.40
2019-04-26T19:08:52.930Z,48.07
2019-04-26T19:11:21.814Z,48.07
2019-04-26T19:14:11.327Z,50.70
2019-04-26T19:16:42.255Z,50.97
2019-04-26T19:19:15.386Z,55.53
2019-04-26T19:21:55.704Z,57.70
2019-04-26T19:24:24.117Z,62.50
2019-04-26T19:26:52.619Z,63.27
2019-04-26T19:29:27.046Z,59.43
2019-04-26T19:31:52.254Z,66.57
2019-04-26T19:34:21.912Z,67.17
2019-04-26T19:36:52.365Z,63.70
2019-04-26T19:39:31.660Z,65.80
2019-04-26T19:41:52.059Z,67.70
2019-04-26T19:44:23.927Z,63.47
2019-04-26T19:47:05.520Z,69.10
2019-04-26T19:49:49.023Z,73.40
2019-04-26T19:52:22.221Z,73.23
2019-04-26T19:54:58.038Z,74.77
2019-04-26T19:57:39.108Z,73.23
2019-04-26T20:00:08.100Z,63.23
2019-04-26T20:02:39.235Z,75.47
2019-04-26T20:05:07.839Z,67.60
2019-04-26T20:07:36.424Z,67.17
2019-04-26T20:10:05.651Z,73.90
2019-04-26T20:12:37.925Z,66.57
2019-04-26T20:15:05.938Z,71.10
2019-04-26T20:17:34.427Z,71.30
2019-04-26T20:20:02.925Z,73.00
2019-04-26T20:22:32.165Z,74.10
2019-04-26T20:25:00.280Z,70.13
2019-04-26T20:27:28.522Z,69.37
2019-04-26T20:29:56.732Z,70.40
2019-04-26T20:32:26.576Z,66.37
2019-04-26T20:35:05.347Z,79.17
2019-04-26T20:37:33.555Z,67.90
2019-04-26T20:40:16.280Z,76.67
2019-04-26T20:42:31.704Z,73.53
2019-04-26T20:44:59.912Z,72.27
2019-04-26T20:47:28.136Z,70.97
2019-04-26T20:50:01.247Z,63.93
2019-04-26T20:52:26.342Z,73.80
2019-04-26T20:54:54.563Z,72.13
2019-04-26T20:57:26.627Z,71.57
2019-04-26T21:00:01.628Z,65.23
2019-04-26T21:02:24.739Z,65.47
2019-04-26T21:04:52.598Z,68.67
2019-04-26T21:07:21.874Z,60.40
2019-04-26T21:09:50.115Z,62.93
2019-04-26T21:12:18.583Z,64.67
2019-04-26T21:14:46.795Z,62.47
2019-04-26T21:17:15.141Z,63.53
2019-04-26T21:19:43.432Z,61.40
2019-04-26T21:22:11.641Z,66.30
2019-04-26T21:24:41.504Z,59.03
2019-04-26T21:27:29.834Z,56.77
2019-04-26T21:30:06.437Z,56.23
2019-04-26T21:32:37.667Z,59.33
2019-04-26T21:35:07.855Z,54.57
2019-04-26T21:37:53.985Z,62.43
2019-04-26T21:40:26.162Z,57.23
2019-04-26T21:42:59.243Z,56.47
2019-04-26T21:45:28.427Z,56.97
2019-04-26T21:47:54.381Z,55.60
2019-04-26T21:50:22.527Z,57.87
2019-04-26T21:52:50.739Z,63.67
2019-04-26T21:55:18.960Z,58.57
2019-04-26T21:57:47.411Z,59.07
2019-04-26T22:00:33.562Z,59.30
2019-04-26T22:03:03.670Z,63.40
2019-04-26T22:05:31.795Z,63.33
2019-04-26T22:08:00.023Z,57.63
2019-04-26T22:10:29.956Z,65.70
2019-04-26T22:13:01.488Z,54.73
2019-04-26T22:15:35.742Z,60.97
2019-04-26T22:18:21.574Z,54.80
2019-04-26T22:20:54.573Z,53.00
2019-04-26T22:23:33.689Z,50.83
2019-04-26T22:26:05.034Z,57.97
2019-04-26T22:28:35.933Z,58.47
2019-04-26T22:31:06.887Z,57.10
2019-04-26T22:33:34.102Z,60.53
2019-04-26T22:36:03.978Z,55.90
2019-04-26T22:38:33.974Z,60.67
2019-04-26T22:41:03.039Z,60.77
2019-04-26T22:43:35.428Z,56.63
2019-04-26T22:46:08.030Z,53.77
2019-04-26T22:48:37.868Z,54.10
2019-04-26T22:51:06.154Z,56.07
2019-04-26T22:53:34.362Z,65.57
2019-04-26T22:56:04.601Z,55.43
2019-04-26T22:58:33.784Z,54.87
2019-04-26T23:01:03.576Z,55.13
2019-04-26T23:03:31.924Z,56.00
2019-04-26T23:06:00.131Z,60.07
2019-04-26T23:08:30.732Z,63.43
2019-04-26T23:11:02.382Z,56.33
2019-04-26T23:13:30.612Z,58.87
2019-04-26T23:16:04.919Z,55.97
2019-04-26T23:18:33.483Z,56.40
2019-04-26T23:21:07.748Z,58.47
2019-04-26T23:23:37.198Z,58.20
2019-04-26T23:26:07.627Z,61.23
2019-04-26T23:28:37.042Z,58.00
2019-04-26T23:31:08.097Z,48.53
2019-04-26T23:33:35.266Z,50.63
2019-04-26T23:36:03.500Z,54.17
2019-04-26T23:38:36.164Z,50.50
2019-04-26T23:41:06.993Z,53.17
2019-04-26T23:43:31.578Z,49.10
2019-04-26T23:45:59.798Z,48.07
2019-04-26T23:48:28.012Z,48.43
2019-04-26T23:50:59.872Z,49.47
2019-04-26T23:53:26.161Z,51.40
2019-04-26T23:55:54.367Z,51.40
2019-04-26T23:58:23.053Z,49.73
